createdAt,value
2023-02-09T00:00:18.091Z,1027.82
2023-02-09T00:01:18.092Z,1027.80
2023-02-09T00:02:18.150Z,1027.74
2023-02-09T00:03:18.078Z,1027.74
2023-02-09T00:04:18.040Z,1027.72
2023-02-09T00:05:18.027Z,1027.72
2023-02-09T00:06:18.018Z,1027.68
2023-02-09T00:07:18.010Z,1027.65
2023-02-09T00:08:17.997Z,1027.66
2023-02-09T00:09:17.982Z,1027.65
2023-02-09T00:10:17.975Z,1027.68
2023-02-09T00:11:17.964Z,1027.67
2023-02-09T00:12:17.946Z,1027.66
2023-02-09T00:13:17.933Z,1027.68
2023-02-09T00:14:21.403Z,1027.69
2023-02-09T00:15:17.913Z,1027.67
2023-02-09T00:16:17.965Z,1027.65
2023-02-09T00:17:17.919Z,1027.65
2023-02-09T00:18:17.880Z,1027.59
2023-02-09T00:19:17.871Z,1027.61
2023-02-09T00:20:17.857Z,1027.63
2023-02-09T00:21:17.846Z,1027.60
2023-02-09T00:22:17.839Z,1027.61
2023-02-09T00:23:17.821Z,1027.54
2023-02-09T00:24:17.810Z,1027.57
2023-02-09T00:25:17.811Z,1027.58
2023-02-09T00:26:17.791Z,1027.58
2023-02-09T00:27:17.776Z,1027.57
2023-02-09T00:28:17.828Z,1027.55
2023-02-09T00:29:17.755Z,1027.57
2023-02-09T00:30:17.764Z,1027.58
2023-02-09T00:31:17.796Z,1027.60
2023-02-09T00:32:17.719Z,1027.62
2023-02-09T00:33:17.724Z,1027.65
2023-02-09T00:34:17.698Z,1027.62
2023-02-09T00:35:17.686Z,1027.61
2023-02-09T00:36:17.674Z,1027.60
2023-02-09T00:37:17.662Z,1027.59
2023-02-09T00:38:17.658Z,1027.61
2023-02-09T00:39:17.634Z,1027.59
2023-02-09T00:40:17.623Z,1027.57
2023-02-09T00:41:17.616Z,1027.57
2023-02-09T00:42:17.605Z,1027.59
2023-02-09T00:43:17.590Z,1027.56
2023-02-09T00:44:17.579Z,1027.57
2023-02-09T00:45:17.569Z,1027.56
2023-02-09T00:46:17.643Z,1027.58
2023-02-09T00:47:17.547Z,1027.57
2023-02-09T00:48:17.533Z,1027.54
2023-02-09T00:49:17.544Z,1027.52
2023-02-09T00:50:17.512Z,1027.52
2023-02-09T00:51:17.498Z,1027.51
2023-02-09T00:52:17.492Z,1027.48
2023-02-09T00:53:17.492Z,1027.46
2023-02-09T00:54:17.464Z,1027.48
2023-02-09T00:55:17.456Z,1027.46
2023-02-09T00:56:17.440Z,1027.46
2023-02-09T00:57:17.431Z,1027.52
2023-02-09T00:58:17.419Z,1027.52
2023-02-09T00:59:17.414Z,1027.53
2023-02-09T01:00:17.396Z,1027.53
2023-02-09T01:01:17.602Z,1027.49
2023-02-09T01:02:17.372Z,1027.45
2023-02-09T01:03:17.358Z,1027.45
2023-02-09T01:04:17.394Z,1027.48
2023-02-09T01:05:17.355Z,1027.44
2023-02-09T01:06:17.325Z,1027.40
2023-02-09T01:07:17.317Z,1027.41
2023-02-09T01:08:17.301Z,1027.39
2023-02-09T01:09:17.289Z,1027.39
2023-02-09T01:10:17.285Z,1027.40
2023-02-09T01:11:17.274Z,1027.46
2023-02-09T01:12:17.254Z,1027.47
2023-02-09T01:13:17.244Z,1027.44
2023-02-09T01:14:17.236Z,1027.40
2023-02-09T01:15:17.236Z,1027.40
2023-02-09T01:16:17.252Z,1027.40
2023-02-09T01:17:17.199Z,1027.45
2023-02-09T01:18:17.186Z,1027.44
2023-02-09T01:19:17.177Z,1027.39
2023-02-09T01:20:17.164Z,1027.38
2023-02-09T01:21:17.175Z,1027.36
2023-02-09T01:22:17.141Z,1027.32
2023-02-09T01:23:18.583Z,1027.35
2023-02-09T01:24:17.120Z,1027.36
2023-02-09T01:25:17.112Z,1027.36
2023-02-09T01:26:17.096Z,1027.34
2023-02-09T01:27:17.118Z,1027.32
2023-02-09T01:28:17.102Z,1027.32
2023-02-09T01:29:17.065Z,1027.32
2023-02-09T01:30:17.053Z,1027.29
2023-02-09T01:31:17.145Z,1027.30
2023-02-09T01:32:17.027Z,1027.35
2023-02-09T01:33:17.018Z,1027.34
2023-02-09T01:34:17.006Z,1027.33
2023-02-09T01:35:16.998Z,1027.35
2023-02-09T01:36:16.985Z,1027.35
2023-02-09T01:37:17.021Z,1027.32
2023-02-09T01:38:16.964Z,1027.38
2023-02-09T01:39:16.975Z,1027.38
2023-02-09T01:40:16.942Z,1027.34
2023-02-09T01:41:16.932Z,1027.39
2023-02-09T01:42:16.918Z,1027.37
2023-02-09T01:43:16.912Z,1027.33
2023-02-09T01:44:16.906Z,1027.35
2023-02-09T01:45:16.892Z,1027.35
2023-02-09T01:46:16.930Z,1027.38
2023-02-09T01:47:16.869Z,1027.34
2023-02-09T01:48:16.854Z,1027.35
2023-02-09T01:49:16.848Z,1027.33
2023-02-09T01:50:16.835Z,1027.36
2023-02-09T01:51:16.824Z,1027.33
2023-02-09T01:52:16.811Z,1027.29
2023-02-09T01:53:16.821Z,1027.32
2023-02-09T01:54:16.791Z,1027.30
2023-02-09T01:55:16.785Z,1027.25
2023-02-09T01:56:16.767Z,1027.27
2023-02-09T01:57:16.762Z,1027.29
2023-02-09T01:58:16.744Z,1027.29
2023-02-09T01:59:16.737Z,1027.33
2023-02-09T02:00:16.757Z,1027.31
2023-02-09T02:01:16.793Z,1027.31
2023-02-09T02:02:16.756Z,1027.32
2023-02-09T02:03:16.690Z,1027.27
2023-02-09T02:04:16.678Z,1027.24
2023-02-09T02:05:16.674Z,1027.28
2023-02-09T02:06:16.658Z,1027.25
2023-02-09T02:07:16.666Z,1027.27
2023-02-09T02:08:16.637Z,1027.26
2023-02-09T02:09:16.655Z,1027.24
2023-02-09T02:10:16.612Z,1027.26
2023-02-09T02:11:16.606Z,1027.22
2023-02-09T02:12:16.592Z,1027.22
2023-02-09T02:13:16.604Z,1027.26
2023-02-09T02:14:16.569Z,1027.24
2023-02-09T02:15:16.580Z,1027.28
2023-02-09T02:16:16.584Z,1027.29
2023-02-09T02:17:16.534Z,1027.28
2023-02-09T02:18:16.528Z,1027.27
2023-02-09T02:19:16.510Z,1027.29
2023-02-09T02:20:16.496Z,1027.25
2023-02-09T02:21:16.491Z,1027.25
2023-02-09T02:22:16.475Z,1027.27
2023-02-09T02:23:16.468Z,1027.28
2023-02-09T02:24:16.453Z,1027.29
2023-02-09T02:25:16.459Z,1027.28
2023-02-09T02:26:16.436Z,1027.32
2023-02-09T02:27:16.420Z,1027.30
2023-02-09T02:28:16.458Z,1027.31
2023-02-09T02:29:16.400Z,1027.34
2023-02-09T02:30:16.401Z,1027.34
2023-02-09T02:31:16.524Z,1027.30
2023-02-09T02:32:19.017Z,1027.28
2023-02-09T02:33:16.356Z,1027.23
2023-02-09T02:34:16.340Z,1027.24
2023-02-09T02:35:16.330Z,1027.23
2023-02-09T02:36:16.317Z,1027.26
2023-02-09T02:37:16.314Z,1027.25
2023-02-09T02:38:16.297Z,1027.24
2023-02-09T02:39:16.283Z,1027.27
2023-02-09T02:40:16.274Z,1027.30
2023-02-09T02:41:16.281Z,1027.29
2023-02-09T02:42:16.249Z,1027.33
2023-02-09T02:43:16.239Z,1027.30
2023-02-09T02:44:16.229Z,1027.32
2023-02-09T02:45:16.219Z,1027.31
2023-02-09T02:46:16.244Z,1027.32
2023-02-09T02:47:16.199Z,1027.33
2023-02-09T02:48:16.197Z,1027.28
2023-02-09T02:49:16.181Z,1027.29
2023-02-09T02:50:16.166Z,1027.32
2023-02-09T02:51:16.161Z,1027.31
2023-02-09T02:52:16.149Z,1027.32
2023-02-09T02:53:16.136Z,1027.33
2023-02-09T02:54:16.129Z,1027.34
2023-02-09T02:55:16.115Z,1027.35
2023-02-09T02:56:16.104Z,1027.33
2023-02-09T02:57:16.113Z,1027.33
2023-02-09T02:58:16.096Z,1027.31
2023-02-09T02:59:16.071Z,1027.30
2023-02-09T03:00:16.079Z,1027.32
2023-02-09T03:01:16.066Z,1027.31
2023-02-09T03:02:16.040Z,1027.32
2023-02-09T03:03:16.033Z,1027.30
2023-02-09T03:04:16.018Z,1027.29
2023-02-09T03:05:16.021Z,1027.27
2023-02-09T03:06:15.992Z,1027.26
2023-02-09T03:07:15.984Z,1027.25
2023-02-09T03:08:15.975Z,1027.26
2023-02-09T03:09:15.964Z,1027.33
2023-02-09T03:10:15.951Z,1027.31
2023-02-09T03:11:15.941Z,1027.32
2023-02-09T03:12:15.928Z,1027.29
2023-02-09T03:13:15.941Z,1027.30
2023-02-09T03:14:15.909Z,1027.27
2023-02-09T03:15:15.898Z,1027.33
2023-02-09T03:16:15.939Z,1027.30
2023-02-09T03:17:15.874Z,1027.31
2023-02-09T03:18:15.862Z,1027.31
2023-02-09T03:19:15.853Z,1027.27
2023-02-09T03:20:15.843Z,1027.25
2023-02-09T03:21:15.830Z,1027.23
2023-02-09T03:22:15.818Z,1027.21
2023-02-09T03:23:15.818Z,1027.19
2023-02-09T03:24:15.799Z,1027.19
2023-02-09T03:25:15.791Z,1027.25
2023-02-09T03:26:15.923Z,1027.25
2023-02-09T03:27:15.771Z,1027.28
2023-02-09T03:28:15.766Z,1027.32
2023-02-09T03:29:15.775Z,1027.34
2023-02-09T03:30:15.821Z,1027.34
2023-02-09T03:31:15.904Z,1027.34
2023-02-09T03:32:15.806Z,1027.32
2023-02-09T03:33:15.702Z,1027.33
2023-02-09T03:34:15.685Z,1027.35
2023-02-09T03:35:15.674Z,1027.33
2023-02-09T03:36:15.668Z,1027.25
2023-02-09T03:37:15.854Z,1027.25
2023-02-09T03:38:15.641Z,1027.24
2023-02-09T03:39:15.636Z,1027.24
2023-02-09T03:40:15.617Z,1027.23
2023-02-09T03:41:15.624Z,1027.23
2023-02-09T03:42:15.603Z,1027.16
2023-02-09T03:43:15.590Z,1027.17
2023-02-09T03:44:15.574Z,1027.14
2023-02-09T03:45:15.584Z,1027.15
2023-02-09T03:46:15.592Z,1027.16
2023-02-09T03:47:15.539Z,1027.19
2023-02-09T03:48:15.537Z,1027.19
2023-02-09T03:49:15.519Z,1027.20
2023-02-09T03:50:15.505Z,1027.19
2023-02-09T03:51:15.509Z,1027.15
2023-02-09T03:52:15.480Z,1027.11
2023-02-09T03:53:15.472Z,1027.06
2023-02-09T03:54:15.464Z,1027.01
2023-02-09T03:55:15.452Z,1027.07
2023-02-09T03:56:15.437Z,1027.04
2023-02-09T03:57:15.454Z,1027.00
2023-02-09T03:58:15.416Z,1027.06
2023-02-09T03:59:15.407Z,1027.08
2023-02-09T04:00:15.400Z,1027.06
2023-02-09T04:01:15.428Z,1027.05
2023-02-09T04:02:15.382Z,1026.99
2023-02-09T04:03:15.368Z,1027.01
2023-02-09T04:04:15.343Z,1027.04
2023-02-09T04:05:15.334Z,1027.03
2023-02-09T04:06:15.321Z,1027.05
2023-02-09T04:07:15.314Z,1027.05
2023-02-09T04:08:15.312Z,1027.04
2023-02-09T04:09:15.309Z,1027.01
2023-02-09T04:10:15.281Z,1026.98
2023-02-09T04:11:15.268Z,1026.97
2023-02-09T04:12:15.269Z,1026.92
2023-02-09T04:13:15.247Z,1026.95
2023-02-09T04:14:15.228Z,1026.91
2023-02-09T04:15:15.225Z,1026.89
2023-02-09T04:16:15.247Z,1026.95
2023-02-09T04:17:15.213Z,1026.90
2023-02-09T04:18:15.187Z,1026.88
2023-02-09T04:19:15.174Z,1026.84
2023-02-09T04:20:15.159Z,1026.82
2023-02-09T04:21:15.151Z,1026.82
2023-02-09T04:22:15.138Z,1026.81
2023-02-09T04:23:15.132Z,1026.84
2023-02-09T04:24:15.124Z,1026.81
2023-02-09T04:25:15.111Z,1026.84
2023-02-09T04:26:15.091Z,1026.81
2023-02-09T04:27:15.081Z,1026.84
2023-02-09T04:28:15.141Z,1026.80
2023-02-09T04:29:15.071Z,1026.78
2023-02-09T04:30:15.056Z,1026.79
2023-02-09T04:31:15.184Z,1026.82
2023-02-09T04:32:15.027Z,1026.79
2023-02-09T04:33:15.035Z,1026.81
2023-02-09T04:34:15.004Z,1026.81
2023-02-09T04:35:14.994Z,1026.79
2023-02-09T04:36:14.981Z,1026.80
2023-02-09T04:37:14.976Z,1026.82
2023-02-09T04:38:14.959Z,1026.80
2023-02-09T04:39:14.951Z,1026.80
2023-02-09T04:40:14.934Z,1026.77
2023-02-09T04:41:14.926Z,1026.78
2023-02-09T04:42:14.914Z,1026.79
2023-02-09T04:43:14.909Z,1026.73
2023-02-09T04:44:14.903Z,1026.76
2023-02-09T04:45:14.886Z,1026.72
2023-02-09T04:46:15.022Z,1026.68
2023-02-09T04:47:14.858Z,1026.67
2023-02-09T04:48:14.845Z,1026.71
2023-02-09T04:49:14.860Z,1026.70
2023-02-09T04:50:14.827Z,1026.68
2023-02-09T04:51:14.813Z,1026.67
2023-02-09T04:52:14.803Z,1026.64
2023-02-09T04:53:14.792Z,1026.65
2023-02-09T04:54:14.789Z,1026.64
2023-02-09T04:55:14.770Z,1026.65
2023-02-09T04:56:15.203Z,1026.63
2023-02-09T04:57:14.757Z,1026.62
2023-02-09T04:58:17.025Z,1026.61
2023-02-09T04:59:14.727Z,1026.63
2023-02-09T05:00:14.717Z,1026.60
2023-02-09T05:01:14.726Z,1026.58
2023-02-09T05:02:14.687Z,1026.58
2023-02-09T05:03:14.754Z,1026.56
2023-02-09T05:04:14.669Z,1026.55
2023-02-09T05:05:14.676Z,1026.56
2023-02-09T05:06:14.649Z,1026.60
2023-02-09T05:07:14.633Z,1026.60
2023-02-09T05:08:14.620Z,1026.60
2023-02-09T05:09:14.613Z,1026.60
2023-02-09T05:10:14.597Z,1026.57
2023-02-09T05:11:14.587Z,1026.59
2023-02-09T05:12:14.584Z,1026.60
2023-02-09T05:13:14.575Z,1026.61
2023-02-09T05:14:14.566Z,1026.62
2023-02-09T05:15:14.552Z,1026.62
2023-02-09T05:16:14.642Z,1026.63
2023-02-09T05:17:14.545Z,1026.60
2023-02-09T05:18:14.506Z,1026.62
2023-02-09T05:19:14.493Z,1026.57
2023-02-09T05:20:14.484Z,1026.59
2023-02-09T05:21:14.575Z,1026.56
2023-02-09T05:22:14.460Z,1026.56
2023-02-09T05:23:14.456Z,1026.51
2023-02-09T05:24:14.436Z,1026.52
2023-02-09T05:25:14.427Z,1026.54
2023-02-09T05:26:14.441Z,1026.54
2023-02-09T05:27:14.407Z,1026.54
2023-02-09T05:28:14.452Z,1026.54
2023-02-09T05:29:14.380Z,1026.55
2023-02-09T05:30:14.372Z,1026.55
2023-02-09T05:31:14.499Z,1026.58
2023-02-09T05:32:14.385Z,1026.57
2023-02-09T05:33:14.342Z,1026.57
2023-02-09T05:34:14.339Z,1026.60
2023-02-09T05:35:14.311Z,1026.62
2023-02-09T05:36:14.307Z,1026.68
2023-02-09T05:37:14.313Z,1026.64
2023-02-09T05:38:14.381Z,1026.72
2023-02-09T05:39:14.269Z,1026.77
2023-02-09T05:40:14.257Z,1026.77
2023-02-09T05:41:14.243Z,1026.71
2023-02-09T05:42:14.234Z,1026.75
2023-02-09T05:43:14.377Z,1026.76
2023-02-09T05:44:14.225Z,1026.74
2023-02-09T05:45:14.202Z,1026.76
2023-02-09T05:46:14.280Z,1026.75
2023-02-09T05:47:14.184Z,1026.77
2023-02-09T05:48:14.179Z,1026.78
2023-02-09T05:49:14.163Z,1026.73
2023-02-09T05:50:14.149Z,1026.69
2023-02-09T05:51:14.139Z,1026.68
2023-02-09T05:52:14.129Z,1026.68
2023-02-09T05:53:15.268Z,1026.62
2023-02-09T05:54:14.101Z,1026.63
2023-02-09T05:55:14.101Z,1026.59
2023-02-09T05:56:14.078Z,1026.57
2023-02-09T05:57:14.063Z,1026.57
2023-02-09T05:58:14.062Z,1026.52
2023-02-09T05:59:14.048Z,1026.53
2023-02-09T06:00:14.032Z,1026.55
2023-02-09T06:01:14.017Z,1026.57
2023-02-09T06:02:14.053Z,1026.58
2023-02-09T06:03:14.045Z,1026.57
2023-02-09T06:04:13.988Z,1026.57
2023-02-09T06:05:13.968Z,1026.54
2023-02-09T06:06:13.962Z,1026.55
2023-02-09T06:07:13.973Z,1026.58
2023-02-09T06:08:13.938Z,1026.54
2023-02-09T06:09:13.968Z,1026.51
2023-02-09T06:10:13.915Z,1026.48
2023-02-09T06:11:13.911Z,1026.46
2023-02-09T06:12:13.894Z,1026.48
2023-02-09T06:13:13.881Z,1026.49
2023-02-09T06:14:13.870Z,1026.45
2023-02-09T06:15:13.854Z,1026.44
2023-02-09T06:16:13.853Z,1026.48
2023-02-09T06:17:13.834Z,1026.51
2023-02-09T06:18:13.824Z,1026.54
2023-02-09T06:19:13.811Z,1026.53
2023-02-09T06:20:13.841Z,1026.50
2023-02-09T06:21:13.794Z,1026.47
2023-02-09T06:22:13.790Z,1026.42
2023-02-09T06:23:13.885Z,1026.39
2023-02-09T06:24:13.760Z,1026.38
2023-02-09T06:25:13.769Z,1026.42
2023-02-09T06:26:13.731Z,1026.41
2023-02-09T06:27:13.727Z,1026.41
2023-02-09T06:28:13.747Z,1026.43
2023-02-09T06:29:13.701Z,1026.47
2023-02-09T06:30:13.687Z,1026.56
2023-02-09T06:31:13.777Z,1026.62
2023-02-09T06:32:13.709Z,1026.67
2023-02-09T06:33:13.657Z,1026.71
2023-02-09T06:34:13.652Z,1026.70
2023-02-09T06:35:13.630Z,1026.73
2023-02-09T06:36:13.627Z,1026.71
2023-02-09T06:37:13.610Z,1026.72
2023-02-09T06:38:13.603Z,1026.76
2023-02-09T06:39:13.588Z,1026.72
2023-02-09T06:40:13.589Z,1026.73
2023-02-09T06:41:13.582Z,1026.67
2023-02-09T06:42:13.934Z,1026.72
2023-02-09T06:43:13.544Z,1026.70
2023-02-09T06:44:13.537Z,1026.74
2023-02-09T06:45:13.529Z,1026.70
2023-02-09T06:46:13.595Z,1026.78
2023-02-09T06:47:13.501Z,1026.79
2023-02-09T06:48:13.494Z,1026.82
2023-02-09T06:49:13.483Z,1026.80
2023-02-09T06:50:13.466Z,1026.80
2023-02-09T06:51:13.452Z,1026.84
2023-02-09T06:52:13.440Z,1026.81
2023-02-09T06:53:13.429Z,1026.78
2023-02-09T06:54:13.421Z,1026.76
2023-02-09T06:55:13.420Z,1026.76
2023-02-09T06:56:13.407Z,1026.75
2023-02-09T06:57:13.400Z,1026.80
2023-02-09T06:58:13.584Z,1026.84
2023-02-09T06:59:13.368Z,1026.87
2023-02-09T07:00:13.361Z,1026.90
2023-02-09T07:01:13.403Z,1026.90
2023-02-09T07:02:13.329Z,1026.91
2023-02-09T07:03:13.316Z,1026.94
2023-02-09T07:04:13.305Z,1026.93
2023-02-09T07:05:13.302Z,1026.96
2023-02-09T07:06:13.280Z,1026.97
2023-02-09T07:07:13.273Z,1026.97
2023-02-09T07:08:13.259Z,1026.96
2023-02-09T07:09:13.246Z,1026.95
2023-02-09T07:10:13.238Z,1026.89
2023-02-09T07:11:13.232Z,1026.93
2023-02-09T07:12:13.214Z,1026.87
2023-02-09T07:13:13.221Z,1026.86
2023-02-09T07:14:13.198Z,1026.89
2023-02-09T07:15:13.186Z,1026.88
2023-02-09T07:16:13.266Z,1026.90
2023-02-09T07:17:13.156Z,1026.95
2023-02-09T07:18:13.146Z,1026.99
2023-02-09T07:19:13.141Z,1027.07
2023-02-09T07:20:13.145Z,1027.16
2023-02-09T07:21:13.126Z,1027.20
2023-02-09T07:22:13.108Z,1027.21
2023-02-09T07:23:13.095Z,1027.25
2023-02-09T07:24:13.080Z,1027.21
2023-02-09T07:25:13.065Z,1027.18
2023-02-09T07:26:13.061Z,1027.17
2023-02-09T07:27:13.047Z,1027.12
2023-02-09T07:28:13.095Z,1027.18
2023-02-09T07:29:13.080Z,1027.12
2023-02-09T07:30:13.018Z,1027.12
2023-02-09T07:31:13.171Z,1027.10
2023-02-09T07:32:12.996Z,1027.07
2023-02-09T07:33:12.974Z,1027.05
2023-02-09T07:34:12.989Z,1027.09
2023-02-09T07:35:12.963Z,1027.02
2023-02-09T07:36:12.948Z,1026.98
2023-02-09T07:37:12.934Z,1026.98
2023-02-09T07:38:12.920Z,1026.95
2023-02-09T07:39:12.921Z,1026.97
2023-02-09T07:40:12.918Z,1026.95
2023-02-09T07:41:12.885Z,1026.97
2023-02-09T07:42:12.875Z,1026.97
2023-02-09T07:43:13.210Z,1026.94
2023-02-09T07:44:12.847Z,1026.89
2023-02-09T07:45:12.859Z,1026.86
2023-02-09T07:46:12.850Z,1026.86
2023-02-09T07:47:12.819Z,1026.86
2023-02-09T07:48:12.804Z,1026.80
2023-02-09T07:49:12.788Z,1026.81
2023-02-09T07:50:12.786Z,1026.82
2023-02-09T07:51:12.767Z,1026.85
2023-02-09T07:52:12.763Z,1026.92
2023-02-09T07:53:12.747Z,1026.86
2023-02-09T07:54:12.739Z,1026.94
2023-02-09T07:55:12.721Z,1026.95
2023-02-09T07:56:12.716Z,1027.03
2023-02-09T07:57:12.697Z,1027.05
2023-02-09T07:58:12.689Z,1027.07
2023-02-09T07:59:12.680Z,1027.09
2023-02-09T08:00:12.672Z,1027.09
2023-02-09T08:01:12.677Z,1027.08
2023-02-09T08:02:12.645Z,1027.09
2023-02-09T08:03:12.637Z,1027.02
2023-02-09T08:04:12.624Z,1026.97
2023-02-09T08:05:12.678Z,1027.00
2023-02-09T08:06:12.602Z,1026.99
2023-02-09T08:07:12.586Z,1027.00
2023-02-09T08:08:12.585Z,1026.99
2023-02-09T08:09:12.562Z,1027.01
2023-02-09T08:10:12.554Z,1027.00
2023-02-09T08:11:12.566Z,1027.03
2023-02-09T08:12:12.565Z,1027.04
2023-02-09T08:13:12.542Z,1027.13
2023-02-09T08:14:12.512Z,1027.11
2023-02-09T08:15:12.497Z,1027.12
2023-02-09T08:16:12.535Z,1027.02
2023-02-09T08:17:12.497Z,1027.06
2023-02-09T08:18:13.098Z,1027.08
2023-02-09T08:19:12.454Z,1027.11
2023-02-09T08:20:12.445Z,1027.16
2023-02-09T08:21:12.431Z,1027.20
2023-02-09T08:22:12.466Z,1027.19
2023-02-09T08:23:12.411Z,1027.16
2023-02-09T08:24:12.399Z,1027.19
2023-02-09T08:25:12.386Z,1027.17
2023-02-09T08:26:12.378Z,1027.11
2023-02-09T08:27:12.371Z,1027.10
2023-02-09T08:28:12.459Z,1027.07
2023-02-09T08:29:12.345Z,1027.07
2023-02-09T08:30:12.337Z,1027.06
2023-02-09T08:31:12.428Z,1027.13
2023-02-09T08:32:12.369Z,1027.17
2023-02-09T08:33:12.325Z,1027.17
2023-02-09T08:34:12.290Z,1027.21
2023-02-09T08:35:12.278Z,1027.24
2023-02-09T08:36:12.266Z,1027.23
2023-02-09T08:37:12.258Z,1027.25
2023-02-09T08:38:12.255Z,1027.30
2023-02-09T08:39:12.233Z,1027.30
2023-02-09T08:40:12.229Z,1027.34
2023-02-09T08:41:12.210Z,1027.36
2023-02-09T08:42:12.204Z,1027.39
2023-02-09T08:43:12.191Z,1027.38
2023-02-09T08:44:12.183Z,1027.42
2023-02-09T08:45:12.176Z,1027.46
2023-02-09T08:46:12.283Z,1027.49
2023-02-09T08:47:12.272Z,1027.52
2023-02-09T08:48:12.498Z,1027.50
2023-02-09T08:49:12.145Z,1027.50
2023-02-09T08:50:12.121Z,1027.49
2023-02-09T08:51:12.105Z,1027.49
2023-02-09T08:52:12.097Z,1027.56
2023-02-09T08:53:12.082Z,1027.56
2023-02-09T08:54:12.076Z,1027.57
2023-02-09T08:55:12.062Z,1027.60
2023-02-09T08:56:12.072Z,1027.58
2023-02-09T08:57:12.043Z,1027.59
2023-02-09T08:58:12.032Z,1027.58
2023-02-09T08:59:12.021Z,1027.56
2023-02-09T09:00:12.008Z,1027.57
2023-02-09T09:01:12.024Z,1027.59
2023-02-09T09:02:11.989Z,1027.57
2023-02-09T09:03:11.978Z,1027.61
2023-02-09T09:04:11.994Z,1027.58
2023-02-09T09:05:12.027Z,1027.55
2023-02-09T09:06:11.958Z,1027.50
2023-02-09T09:07:11.941Z,1027.54
2023-02-09T09:08:11.934Z,1027.53
2023-02-09T09:09:11.917Z,1027.51
2023-02-09T09:10:11.904Z,1027.52
2023-02-09T09:11:11.896Z,1027.54
2023-02-09T09:12:11.886Z,1027.53
2023-02-09T09:13:11.871Z,1027.55
2023-02-09T09:14:11.864Z,1027.52
2023-02-09T09:15:11.855Z,1027.59
2023-02-09T09:16:11.852Z,1027.65
2023-02-09T09:17:11.837Z,1027.69
2023-02-09T09:18:11.821Z,1027.71
2023-02-09T09:19:11.809Z,1027.71
2023-02-09T09:20:11.796Z,1027.70
2023-02-09T09:21:12.424Z,1027.70
2023-02-09T09:22:11.775Z,1027.73
2023-02-09T09:23:11.763Z,1027.74
2023-02-09T09:24:11.760Z,1027.71
2023-02-09T09:25:11.842Z,1027.75
2023-02-09T09:26:11.735Z,1027.73
2023-02-09T09:27:11.724Z,1027.77
2023-02-09T09:28:11.753Z,1027.76
2023-02-09T09:29:11.700Z,1027.73
2023-02-09T09:30:11.692Z,1027.78
2023-02-09T09:31:11.695Z,1027.77
2023-02-09T09:32:11.781Z,1027.74
2023-02-09T09:33:11.759Z,1027.73
2023-02-09T09:34:11.649Z,1027.75
2023-02-09T09:35:11.637Z,1027.74
2023-02-09T09:36:11.632Z,1027.84
2023-02-09T09:37:11.649Z,1027.79
2023-02-09T09:38:11.612Z,1027.81
2023-02-09T09:39:11.596Z,1027.85
2023-02-09T09:40:11.598Z,1027.86
2023-02-09T09:41:11.573Z,1027.83
2023-02-09T09:42:11.567Z,1027.83
2023-02-09T09:43:11.564Z,1027.84
2023-02-09T09:44:11.543Z,1027.77
2023-02-09T09:45:11.536Z,1027.77
2023-02-09T09:46:11.577Z,1027.75
2023-02-09T09:47:11.518Z,1027.76
2023-02-09T09:48:11.502Z,1027.78
2023-02-09T09:49:11.493Z,1027.77
2023-02-09T09:50:11.485Z,1027.79
2023-02-09T09:51:11.481Z,1027.77
2023-02-09T09:52:11.463Z,1027.78
2023-02-09T09:53:11.472Z,1027.73
2023-02-09T09:54:11.442Z,1027.76
2023-02-09T09:55:11.431Z,1027.77
2023-02-09T09:56:11.428Z,1027.75
2023-02-09T09:57:11.411Z,1027.81
2023-02-09T09:58:11.398Z,1027.86
2023-02-09T09:59:11.389Z,1027.88
2023-02-09T10:00:11.401Z,1027.85
2023-02-09T10:01:11.421Z,1027.90
2023-02-09T10:02:13.838Z,1027.90
2023-02-09T10:03:11.356Z,1027.90
2023-02-09T10:04:11.394Z,1027.93
2023-02-09T10:05:11.326Z,1027.92
2023-02-09T10:06:11.330Z,1027.88
2023-02-09T10:07:11.305Z,1027.85
2023-02-09T10:08:11.386Z,1027.85
2023-02-09T10:09:11.444Z,1027.84
2023-02-09T10:10:11.276Z,1027.85
2023-02-09T10:11:11.264Z,1027.82
2023-02-09T10:12:11.259Z,1027.81
2023-02-09T10:13:11.261Z,1027.80
2023-02-09T10:14:11.235Z,1027.79
2023-02-09T10:15:11.224Z,1027.83
2023-02-09T10:16:11.212Z,1027.81
2023-02-09T10:17:11.281Z,1027.76
2023-02-09T10:18:11.194Z,1027.80
2023-02-09T10:19:11.180Z,1027.78
2023-02-09T10:20:11.174Z,1027.81
2023-02-09T10:21:11.159Z,1027.85
2023-02-09T10:22:11.149Z,1027.81
2023-02-09T10:23:11.142Z,1027.84
2023-02-09T10:24:11.129Z,1027.85
2023-02-09T10:25:11.170Z,1027.85
2023-02-09T10:26:11.107Z,1027.84
2023-02-09T10:27:11.101Z,1027.83
2023-02-09T10:28:11.108Z,1027.72
2023-02-09T10:29:11.076Z,1027.58
2023-02-09T10:30:11.077Z,1027.49
2023-02-09T10:31:11.256Z,1027.45
2023-02-09T10:32:11.041Z,1027.47
2023-02-09T10:33:11.043Z,1027.50
2023-02-09T10:34:11.021Z,1027.57
2023-02-09T10:35:11.020Z,1027.59
2023-02-09T10:36:11.004Z,1027.59
2023-02-09T10:37:10.993Z,1027.55
2023-02-09T10:38:10.983Z,1027.53
2023-02-09T10:39:10.983Z,1027.51
2023-02-09T10:40:10.965Z,1027.43
2023-02-09T10:41:10.971Z,1027.39
2023-02-09T10:42:10.947Z,1027.39
2023-02-09T10:43:10.930Z,1027.45
2023-02-09T10:44:10.921Z,1027.45
2023-02-09T10:45:10.917Z,1027.44
2023-02-09T10:46:10.924Z,1027.48
2023-02-09T10:47:10.887Z,1027.46
2023-02-09T10:48:10.877Z,1027.48
2023-02-09T10:49:10.869Z,1027.46
2023-02-09T10:50:10.862Z,1027.55
2023-02-09T10:51:10.849Z,1027.55
2023-02-09T10:52:10.834Z,1027.59
2023-02-09T10:53:10.827Z,1027.53
2023-02-09T10:54:10.816Z,1027.52
2023-02-09T10:55:10.814Z,1027.53
2023-02-09T10:56:10.792Z,1027.52
2023-02-09T10:57:10.807Z,1027.47
2023-02-09T10:58:11.028Z,1027.49
2023-02-09T10:59:10.779Z,1027.49
2023-02-09T11:00:10.753Z,1027.37
2023-02-09T11:01:10.828Z,1027.35
2023-02-09T11:02:11.983Z,1027.32
2023-02-09T11:03:10.738Z,1027.36
2023-02-09T11:04:10.805Z,1027.37
2023-02-09T11:05:10.708Z,1027.41
2023-02-09T11:06:10.704Z,1027.43
2023-02-09T11:07:10.689Z,1027.39
2023-02-09T11:08:10.680Z,1027.44
2023-02-09T11:09:10.671Z,1027.43
2023-02-09T11:10:12.374Z,1027.45
2023-02-09T11:11:10.658Z,1027.43
2023-02-09T11:12:10.641Z,1027.37
2023-02-09T11:13:10.649Z,1027.40
2023-02-09T11:14:10.618Z,1027.46
2023-02-09T11:15:10.616Z,1027.41
2023-02-09T11:16:10.638Z,1027.43
2023-02-09T11:17:10.594Z,1027.36
2023-02-09T11:18:10.580Z,1027.38
2023-02-09T11:19:11.427Z,1027.42
2023-02-09T11:20:10.560Z,1027.43
2023-02-09T11:21:10.552Z,1027.39
2023-02-09T11:22:10.541Z,1027.38
2023-02-09T11:23:10.536Z,1027.34
2023-02-09T11:24:10.524Z,1027.32
2023-02-09T11:25:10.514Z,1027.31
2023-02-09T11:26:10.502Z,1027.31
2023-02-09T11:27:10.491Z,1027.31
2023-02-09T11:28:10.522Z,1027.31
2023-02-09T11:29:10.499Z,1027.31
2023-02-09T11:30:10.460Z,1027.26
2023-02-09T11:31:10.606Z,1027.22
2023-02-09T11:32:10.445Z,1027.17
2023-02-09T11:33:10.431Z,1027.11
2023-02-09T11:34:10.421Z,1027.12
2023-02-09T11:35:10.425Z,1027.16
2023-02-09T11:36:10.399Z,1027.20
2023-02-09T11:37:10.395Z,1027.23
2023-02-09T11:38:10.385Z,1027.23
2023-02-09T11:39:10.370Z,1027.24
2023-02-09T11:40:10.369Z,1027.28
2023-02-09T11:41:10.358Z,1027.28
2023-02-09T11:42:10.353Z,1027.27
2023-02-09T11:43:10.336Z,1027.28
2023-02-09T11:44:10.930Z,1027.32
2023-02-09T11:45:10.331Z,1027.27
2023-02-09T11:46:10.338Z,1027.24
2023-02-09T11:47:10.326Z,1027.20
2023-02-09T11:48:10.288Z,1027.18
2023-02-09T11:49:10.275Z,1027.13
2023-02-09T11:50:10.263Z,1027.18
2023-02-09T11:51:10.259Z,1027.21
2023-02-09T11:52:10.244Z,1027.25
2023-02-09T11:53:10.266Z,1027.28
2023-02-09T11:54:10.234Z,1027.29
2023-02-09T11:55:10.227Z,1027.28
2023-02-09T11:56:10.206Z,1027.22
2023-02-09T11:57:10.195Z,1027.16
2023-02-09T11:58:10.384Z,1027.13
2023-02-09T11:59:10.208Z,1027.12
2023-02-09T12:00:10.162Z,1027.12
2023-02-09T12:01:15.771Z,1027.11
2023-02-09T12:02:10.143Z,1027.10
2023-02-09T12:03:10.246Z,1027.13
2023-02-09T12:04:10.124Z,1027.08
2023-02-09T12:05:10.115Z,1027.02